createdAt,value
2023-05-25T00:03:03.949Z,14.57
2023-05-25T00:08:05.898Z,11.45
2023-05-25T00:13:07.628Z,12.27
2023-05-25T00:18:09.520Z,14.60
2023-05-25T00:23:11.277Z,11.02
2023-05-25T00:28:12.985Z,12.23
2023-05-25T00:33:15.561Z,11.30
2023-05-25T00:38:18.257Z,12.80
2023-05-25T00:43:19.948Z,8.25
2023-05-25T00:48:22.791Z,7.55
2023-05-25T00:53:24.586Z,11.07
2023-05-25T00:58:30.506Z,7.53
2023-05-25T01:03:38.163Z,10.43
2023-05-25T01:08:44.230Z,16.20
2023-05-25T01:13:47.763Z,9.85
2023-05-25T01:18:52.673Z,9.52
2023-05-25T01:24:03.603Z,11.05
2023-05-25T01:29:06.888Z,9.07
2023-05-25T01:34:09.312Z,12.60
2023-05-25T01:39:11.281Z,9.43
2023-05-25T01:44:13.075Z,13.13
2023-05-25T01:49:46.688Z,8.75
2023-05-25T01:54:53.542Z,11.40
2023-05-25T02:00:02.740Z,10.80
2023-05-25T02:05:05.093Z,14.05
2023-05-25T02:10:07.320Z,8.32
2023-05-25T02:15:09.388Z,12.05
2023-05-25T02:20:11.729Z,10.93
2023-05-25T02:25:13.794Z,20.60
2023-05-25T02:30:15.687Z,8.95
2023-05-25T02:35:17.583Z,11.05
2023-05-25T02:40:19.356Z,7.25
2023-05-25T02:45:21.073Z,8.10
2023-05-25T02:50:22.822Z,9.88
2023-05-25T02:55:26.119Z,11.25
2023-05-25T03:00:28.219Z,12.60
2023-05-25T03:05:30.048Z,9.77
2023-05-25T03:10:31.844Z,15.90
2023-05-25T03:15:33.558Z,8.95
2023-05-25T03:20:35.369Z,11.73
2023-05-25T03:25:37.090Z,15.00
2023-05-25T03:30:38.904Z,14.23
2023-05-25T03:35:40.797Z,16.90
2023-05-25T03:40:42.542Z,13.77
2023-05-25T03:45:44.605Z,13.55
2023-05-25T03:50:46.604Z,17.65
2023-05-25T03:55:51.981Z,16.73
2023-05-25T04:00:54.980Z,15.48
2023-05-25T04:05:58.171Z,16.13
2023-05-25T04:10:59.967Z,14.20
2023-05-25T04:16:01.789Z,15.45
2023-05-25T04:21:03.656Z,13.90
2023-05-25T04:26:06.062Z,14.57
2023-05-25T04:31:09.174Z,13.23
2023-05-25T04:36:11.040Z,14.98
2023-05-25T04:41:12.799Z,16.40
2023-05-25T04:46:16.969Z,15.82
2023-05-25T04:51:18.774Z,14.13
2023-05-25T04:56:22.236Z,14.90
2023-05-25T05:01:24.105Z,15.05
2023-05-25T05:06:26.049Z,18.05
2023-05-25T05:11:28.343Z,19.40
2023-05-25T05:16:34.204Z,15.77
2023-05-25T05:21:36.239Z,18.13
2023-05-25T05:26:55.622Z,18.55
2023-05-25T05:31:58.979Z,18.08
2023-05-25T05:37:00.868Z,16.42
2023-05-25T05:42:02.725Z,19.98
2023-05-25T05:47:04.742Z,22.75
2023-05-25T05:52:08.712Z,23.35
2023-05-25T05:57:10.533Z,22.48
2023-05-25T06:02:12.364Z,22.73
2023-05-25T06:07:14.100Z,21.30
2023-05-25T06:12:16.029Z,24.00
2023-05-25T06:17:17.790Z,26.00
2023-05-25T06:22:19.568Z,21.85
2023-05-25T06:27:23.573Z,26.30
2023-05-25T06:32:25.383Z,24.10
2023-05-25T06:37:27.889Z,21.98
2023-05-25T06:42:29.606Z,31.00
2023-05-25T06:47:31.564Z,33.00
2023-05-25T06:52:33.603Z,28.73
2023-05-25T06:57:35.454Z,35.20
2023-05-25T07:02:37.361Z,27.65
2023-05-25T07:07:40.166Z,28.58
2023-05-25T07:12:41.907Z,28.35
2023-05-25T07:17:43.965Z,31.13
2023-05-25T07:22:47.445Z,30.38
2023-05-25T07:27:50.444Z,29.17
2023-05-25T07:32:52.293Z,26.15
2023-05-25T07:38:00.933Z,24.42
2023-05-25T07:43:02.776Z,23.58
2023-05-25T07:48:07.131Z,23.52
2023-05-25T07:53:08.919Z,21.58
2023-05-25T07:58:10.669Z,17.25
2023-05-25T08:03:13.893Z,16.13
2023-05-25T08:08:16.076Z,20.05
2023-05-25T08:13:17.854Z,16.80
2023-05-25T08:18:19.575Z,16.05
2023-05-25T08:23:22.002Z,18.05
2023-05-25T08:28:23.862Z,17.77
2023-05-25T08:33:26.236Z,15.00
2023-05-25T08:38:28.186Z,13.60
2023-05-25T08:43:30.780Z,16.90
2023-05-25T08:48:41.521Z,19.27
2023-05-25T08:53:44.698Z,18.67
2023-05-25T08:59:13.537Z,13.50
2023-05-25T09:04:19.781Z,14.43
2023-05-25T09:09:24.188Z,14.23
2023-05-25T09:14:31.497Z,13.80
2023-05-25T09:19:36.661Z,14.25
2023-05-25T09:24:41.237Z,9.13
2023-05-25T09:29:43.261Z,14.77
2023-05-25T09:34:46.079Z,11.40
2023-05-25T09:39:48.261Z,14.52
2023-05-25T09:44:50.145Z,11.43
2023-05-25T09:49:53.024Z,9.60
2023-05-25T09:54:56.235Z,10.07
2023-05-25T09:59:58.068Z,9.00
2023-05-25T10:05:00.106Z,9.23
2023-05-25T10:10:06.006Z,11.75
2023-05-25T10:15:09.333Z,10.80
2023-05-25T10:20:11.982Z,9.95
2023-05-25T10:25:32.765Z,9.63
2023-05-25T10:30:36.973Z,13.32
2023-05-25T10:35:56.074Z,11.02
2023-05-25T10:41:04.283Z,10.93
2023-05-25T10:46:07.083Z,9.65
2023-05-25T10:51:11.999Z,12.82
2023-05-25T10:56:14.322Z,11.60
2023-05-25T11:01:16.354Z,10.38
2023-05-25T11:06:21.531Z,9.23
2023-05-25T11:11:43.457Z,9.48
2023-05-25T11:17:18.339Z,12.65
2023-05-25T11:22:31.402Z,10.50
2023-05-25T11:27:45.052Z,9.82
2023-05-25T11:32:50.848Z,8.57
2023-05-25T11:37:53.687Z,8.23
2023-05-25T11:42:57.195Z,8.82
2023-05-25T11:47:59.287Z,9.80
2023-05-25T11:53:06.104Z,9.93
2023-05-25T11:58:07.898Z,12.75
2023-05-25T12:03:10.523Z,8.20
2023-05-25T12:08:12.486Z,11.80
2023-05-25T12:13:14.803Z,8.25
2023-05-25T12:18:16.750Z,8.50
2023-05-25T12:23:18.613Z,6.78
2023-05-25T12:28:20.413Z,9.60
2023-05-25T12:33:22.160Z,6.95
2023-05-25T12:38:23.986Z,8.48
2023-05-25T12:43:25.757Z,7.22
2023-05-25T12:48:27.904Z,7.55
2023-05-25T12:53:31.093Z,7.18
2023-05-25T12:58:32.985Z,11.88
2023-05-25T13:03:34.832Z,8.30
2023-05-25T13:08:39.074Z,7.57
2023-05-25T13:13:40.833Z,8.20
2023-05-25T13:18:42.544Z,8.73
2023-05-25T13:23:44.563Z,8.77
2023-05-25T13:28:46.695Z,9.95
2023-05-25T13:33:49.439Z,8.63
2023-05-25T13:38:51.467Z,9.18
2023-05-25T13:43:53.329Z,7.30
2023-05-25T13:48:55.081Z,9.95
2023-05-25T13:53:56.821Z,8.80
2023-05-25T13:58:58.615Z,9.93
2023-05-25T14:04:00.651Z,9.75
2023-05-25T14:09:02.857Z,9.10
2023-05-25T14:14:13.699Z,8.40
2023-05-25T14:19:21.403Z,7.60
2023-05-25T14:24:23.152Z,8.73
2023-05-25T14:29:26.017Z,11.57
2023-05-25T14:34:27.981Z,9.40
2023-05-25T14:39:31.100Z,8.43
2023-05-25T14:44:33.113Z,9.75
2023-05-25T14:49:35.019Z,7.07
2023-05-25T14:54:37.067Z,8.88
2023-05-25T14:59:39.253Z,7.43
2023-05-25T15:04:41.367Z,9.30
2023-05-25T15:09:43.249Z,9.23
2023-05-25T15:14:45.082Z,8.95
2023-05-25T15:19:46.824Z,7.15
2023-05-25T15:24:48.573Z,7.50
2023-05-25T15:29:50.612Z,7.57
2023-05-25T15:34:52.399Z,10.48
2023-05-25T15:39:54.174Z,7.00
2023-05-25T15:44:55.880Z,7.57
2023-05-25T15:49:57.646Z,7.85
2023-05-25T15:54:59.442Z,8.00
2023-05-25T16:00:01.160Z,7.45
2023-05-25T16:05:05.342Z,8.88
2023-05-25T16:10:07.675Z,7.15
2023-05-25T16:15:10.512Z,10.00
2023-05-25T16:20:12.612Z,7.15
2023-05-25T16:25:14.474Z,7.68
2023-05-25T16:30:16.404Z,8.10
2023-05-25T16:35:18.259Z,6.43
2023-05-25T16:40:21.170Z,7.75
2023-05-25T16:45:22.916Z,9.02
2023-05-25T16:50:24.749Z,7.28
2023-05-25T16:55:26.495Z,6.45
2023-05-25T17:00:28.177Z,6.63
2023-05-25T17:05:29.906Z,10.32
2023-05-25T17:10:31.651Z,8.20
2023-05-25T17:15:33.369Z,11.43
2023-05-25T17:20:35.311Z,8.35
2023-05-25T17:25:39.071Z,7.63
2023-05-25T17:30:40.830Z,8.48
2023-05-25T17:35:42.697Z,5.57
2023-05-25T17:40:44.672Z,5.20
2023-05-25T17:45:46.920Z,9.10
2023-05-25T17:50:48.892Z,13.27
2023-05-25T17:55:50.660Z,17.65
2023-05-25T18:00:52.495Z,8.02
2023-05-25T18:05:54.243Z,11.60
2023-05-25T18:10:56.090Z,10.82
2023-05-25T18:15:57.818Z,8.07
2023-05-25T18:21:00.004Z,9.25
2023-05-25T18:26:01.687Z,7.57
2023-05-25T18:31:03.451Z,5.78
2023-05-25T18:36:05.519Z,6.22
2023-05-25T18:41:07.392Z,10.30
2023-05-25T18:46:09.160Z,5.05
2023-05-25T18:51:11.089Z,5.95
2023-05-25T18:56:12.865Z,6.60
2023-05-25T19:01:14.626Z,11.38
2023-05-25T19:06:16.491Z,7.05
2023-05-25T19:11:22.252Z,8.57
2023-05-25T19:16:24.058Z,8.52
2023-05-25T19:21:26.801Z,8.80
2023-05-25T19:26:28.804Z,9.77
2023-05-25T19:31:31.528Z,9.48
2023-05-25T19:36:33.349Z,9.45
2023-05-25T19:41:38.579Z,8.93
2023-05-25T19:46:41.202Z,8.82
2023-05-25T19:51:42.965Z,9.32
2023-05-25T19:56:44.685Z,9.80
2023-05-25T20:01:46.506Z,7.72
2023-05-25T20:06:48.269Z,9.13
2023-05-25T20:11:49.985Z,8.88
2023-05-25T20:16:52.717Z,7.40
2023-05-25T20:21:54.829Z,12.18
2023-05-25T20:26:56.813Z,10.27
2023-05-25T20:31:58.841Z,11.10
2023-05-25T20:37:01.000Z,10.23
2023-05-25T20:42:02.728Z,11.80
2023-05-25T20:47:04.913Z,10.45
2023-05-25T20:52:06.726Z,10.90
2023-05-25T20:57:08.572Z,13.57
2023-05-25T21:02:10.556Z,10.45
2023-05-25T21:07:12.488Z,11.85
2023-05-25T21:12:14.298Z,9.75
2023-05-25T21:17:18.683Z,13.00
2023-05-25T21:22:20.603Z,11.35
2023-05-25T21:27:22.337Z,15.35
2023-05-25T21:32:24.118Z,11.57
2023-05-25T21:37:25.903Z,17.58
2023-05-25T21:42:27.616Z,10.57
2023-05-25T21:47:29.562Z,10.25
2023-05-25T21:52:31.290Z,10.60
2023-05-25T21:57:33.119Z,11.43
2023-05-25T22:02:34.858Z,14.23
2023-05-25T22:07:36.626Z,13.88
2023-05-25T22:12:38.373Z,11.13
2023-05-25T22:17:40.181Z,15.95
2023-05-25T22:22:42.276Z,10.57
2023-05-25T22:27:44.014Z,12.07
2023-05-25T22:32:45.894Z,12.57
2023-05-25T22:37:47.939Z,10.95
2023-05-25T22:42:50.351Z,10.13
2023-05-25T22:47:52.233Z,11.75
2023-05-25T22:52:54.052Z,12.85
2023-05-25T22:57:56.156Z,11.20
2023-05-25T23:02:57.987Z,13.43
2023-05-25T23:07:59.806Z,12.48
2023-05-25T23:13:02.297Z,24.42
2023-05-25T23:18:04.153Z,11.82
2023-05-25T23:23:05.907Z,9.65
2023-05-25T23:28:07.615Z,13.63
2023-05-25T23:33:10.255Z,15.07
2023-05-25T23:38:12.833Z,12.43
2023-05-25T23:43:14.669Z,12.68
2023-05-25T23:48:16.465Z,11.35
2023-05-25T23:53:18.255Z,12.88
2023-05-25T23:58:19.957Z,13.38
